createdAt,value
2022-10-10T00:02:00.650Z,11.90
2022-10-10T00:04:27.122Z,11.00
2022-10-10T00:06:53.535Z,11.67
2022-10-10T00:09:19.978Z,11.40
2022-10-10T00:11:46.397Z,12.57
2022-10-10T00:14:12.842Z,11.80
2022-10-10T00:16:39.252Z,11.77
2022-10-10T00:19:05.704Z,11.37
2022-10-10T00:21:32.206Z,12.00
2022-10-10T00:23:58.760Z,11.83
2022-10-10T00:26:25.258Z,10.70
2022-10-10T00:28:51.752Z,11.80
2022-10-10T00:31:18.415Z,10.57
2022-10-10T00:33:44.928Z,11.20
2022-10-10T00:36:11.375Z,11.20
2022-10-10T00:38:37.798Z,11.00
2022-10-10T00:41:04.330Z,10.77
2022-10-10T00:43:30.867Z,11.13
2022-10-10T00:45:57.352Z,10.93
2022-10-10T00:48:23.807Z,10.37
2022-10-10T00:50:57.571Z,10.77
2022-10-10T00:53:25.358Z,11.00
2022-10-10T00:55:51.789Z,11.17
2022-10-10T00:58:18.270Z,10.00
2022-10-10T01:00:44.772Z,10.60
2022-10-10T01:03:11.222Z,10.67
2022-10-10T01:05:37.701Z,10.40
2022-10-10T01:08:04.436Z,10.87
2022-10-10T01:10:30.942Z,10.40
2022-10-10T01:13:12.536Z,10.93
2022-10-10T01:15:44.956Z,10.67
2022-10-10T01:18:30.196Z,10.73
2022-10-10T01:21:01.964Z,10.40
2022-10-10T01:23:37.479Z,10.33
2022-10-10T01:26:13.010Z,11.00
2022-10-10T01:28:44.507Z,10.40
2022-10-10T01:31:12.148Z,10.90
2022-10-10T01:33:40.778Z,11.33
2022-10-10T01:36:10.676Z,10.27
2022-10-10T01:38:37.241Z,11.17
2022-10-10T01:41:08.648Z,9.80
2022-10-10T01:43:35.814Z,10.63
2022-10-10T01:46:09.698Z,10.37
2022-10-10T01:48:36.172Z,10.80
2022-10-10T01:51:09.723Z,11.50
2022-10-10T01:53:44.774Z,9.30
2022-10-10T01:56:17.350Z,9.47
2022-10-10T01:58:54.542Z,9.63
2022-10-10T02:01:31.349Z,8.67
2022-10-10T02:04:02.096Z,9.83
2022-10-10T02:06:36.196Z,8.60
2022-10-10T02:09:04.577Z,9.03
2022-10-10T02:11:32.594Z,9.03
2022-10-10T02:14:25.334Z,7.87
2022-10-10T02:16:52.847Z,8.07
2022-10-10T02:19:20.398Z,7.87
2022-10-10T02:21:47.258Z,7.70
2022-10-10T02:24:13.695Z,8.37
2022-10-10T02:26:40.264Z,7.90
2022-10-10T02:29:10.712Z,8.40
2022-10-10T02:31:43.206Z,8.77
2022-10-10T02:34:11.150Z,8.40
2022-10-10T02:36:37.706Z,7.83
2022-10-10T02:39:04.195Z,8.47
2022-10-10T02:41:30.739Z,7.60
2022-10-10T02:43:57.177Z,7.80
2022-10-10T02:46:23.750Z,6.87
2022-10-10T02:48:50.134Z,6.77
2022-10-10T02:51:16.617Z,6.67
2022-10-10T02:53:43.061Z,7.10
2022-10-10T02:56:09.561Z,8.07
2022-10-10T02:58:35.962Z,7.47
2022-10-10T03:01:02.429Z,6.90
2022-10-10T03:03:28.893Z,6.13
2022-10-10T03:05:55.296Z,6.50
2022-10-10T03:08:21.802Z,7.90
2022-10-10T03:10:57.963Z,6.53
2022-10-10T03:13:24.499Z,6.70
2022-10-10T03:15:50.999Z,6.13
2022-10-10T03:18:17.518Z,5.70
2022-10-10T03:20:53.498Z,6.27
2022-10-10T03:23:19.934Z,5.93
2022-10-10T03:25:46.381Z,5.90
2022-10-10T03:28:13.061Z,6.97
2022-10-10T03:30:39.566Z,6.43
2022-10-10T03:33:06.228Z,6.40
2022-10-10T03:35:32.784Z,5.57
2022-10-10T03:37:59.512Z,5.37
2022-10-10T03:40:26.144Z,5.27
2022-10-10T03:42:53.157Z,6.73
2022-10-10T03:45:19.901Z,5.10
2022-10-10T03:47:46.309Z,5.10
2022-10-10T03:50:12.884Z,4.70
2022-10-10T03:52:39.355Z,5.47
2022-10-10T03:55:06.054Z,5.17
2022-10-10T03:57:32.504Z,4.63
2022-10-10T03:59:58.966Z,5.07
2022-10-10T04:02:25.478Z,4.67
2022-10-10T04:04:51.954Z,4.50
2022-10-10T04:07:18.432Z,5.17
2022-10-10T04:09:45.192Z,5.30
2022-10-10T04:12:11.629Z,5.40
2022-10-10T04:14:38.037Z,4.87
2022-10-10T04:17:04.461Z,4.37
2022-10-10T04:19:30.903Z,4.60
2022-10-10T04:21:57.336Z,4.10
2022-10-10T04:24:23.732Z,4.30
2022-10-10T04:26:50.179Z,4.30
2022-10-10T04:29:16.604Z,4.10
2022-10-10T04:31:43.053Z,3.57
2022-10-10T04:34:09.540Z,5.17
2022-10-10T04:36:36.761Z,5.27
2022-10-10T04:39:03.999Z,4.30
2022-10-10T04:41:30.408Z,4.03
2022-10-10T04:43:56.827Z,3.60
2022-10-10T04:46:23.359Z,4.43
2022-10-10T04:48:50.462Z,4.10
2022-10-10T04:55:24.651Z,3.97
2022-10-10T04:57:51.120Z,3.63
2022-10-10T05:00:17.597Z,4.23
2022-10-10T05:02:44.066Z,3.37
2022-10-10T05:08:32.345Z,3.90
2022-10-10T05:10:58.746Z,3.37
2022-10-10T05:13:25.192Z,3.47
2022-10-10T05:15:52.300Z,3.67
2022-10-10T05:18:19.334Z,3.70
2022-10-10T05:20:47.776Z,3.37
2022-10-10T05:23:14.701Z,3.33
2022-10-10T05:25:43.578Z,4.03
2022-10-10T05:28:10.081Z,3.53
2022-10-10T05:30:36.543Z,3.73
2022-10-10T05:33:02.988Z,3.50
2022-10-10T05:35:29.482Z,4.07
2022-10-10T05:37:55.932Z,3.07
2022-10-10T05:40:22.730Z,4.10
2022-10-10T05:42:49.553Z,3.73
2022-10-10T05:45:16.262Z,3.43
2022-10-10T05:47:46.774Z,4.00
2022-10-10T05:57:07.224Z,3.77
2022-10-10T06:03:02.845Z,3.60
2022-10-10T06:05:29.304Z,3.43
2022-10-10T06:08:12.306Z,4.07
2022-10-10T06:10:43.008Z,3.80
2022-10-10T06:13:09.939Z,4.20
2022-10-10T06:15:36.437Z,3.73
2022-10-10T06:18:03.333Z,3.27
2022-10-10T06:24:04.779Z,2.70
2022-10-10T06:30:07.040Z,4.00
2022-10-10T06:32:33.517Z,3.23
2022-10-10T06:35:00.110Z,3.50
2022-10-10T06:37:26.648Z,3.63
2022-10-10T06:39:53.656Z,3.10
2022-10-10T06:45:50.112Z,2.87
2022-10-10T06:51:45.549Z,3.07
2022-10-10T06:54:12.252Z,2.93
2022-10-10T06:56:42.245Z,3.30
2022-10-10T06:59:08.695Z,2.60
2022-10-10T07:01:35.207Z,2.53
2022-10-10T07:04:01.707Z,3.20
2022-10-10T07:06:32.545Z,3.03
2022-10-10T07:09:01.129Z,3.03
2022-10-10T07:11:27.599Z,3.63
2022-10-10T07:13:54.276Z,4.00
2022-10-10T07:16:20.698Z,4.13
2022-10-10T07:18:47.143Z,3.57
2022-10-10T07:21:13.541Z,3.03
2022-10-10T07:23:40.094Z,3.13
2022-10-10T07:26:07.573Z,3.20
2022-10-10T07:28:34.133Z,2.87
2022-10-10T07:31:01.545Z,3.03
2022-10-10T07:33:31.365Z,2.50
2022-10-10T07:35:57.907Z,2.47
2022-10-10T07:38:24.415Z,2.67
2022-10-10T07:40:50.857Z,2.90
2022-10-10T07:43:17.497Z,3.00
2022-10-10T07:45:43.910Z,3.67
2022-10-10T07:48:10.345Z,2.57
2022-10-10T07:50:40.327Z,2.57
2022-10-10T07:53:08.073Z,2.43
2022-10-10T07:55:34.901Z,3.33
2022-10-10T07:58:03.796Z,3.87
2022-10-10T08:00:30.346Z,3.10
2022-10-10T08:02:56.845Z,2.93
2022-10-10T08:05:23.443Z,3.30
2022-10-10T08:07:50.303Z,2.93
2022-10-10T08:10:16.976Z,2.60
2022-10-10T08:12:44.482Z,2.93
2022-10-10T08:17:38.374Z,2.30
2022-10-10T08:20:05.118Z,2.43
2022-10-10T08:22:31.551Z,2.17
2022-10-10T08:24:57.995Z,2.03
2022-10-10T08:27:24.478Z,2.43
2022-10-10T08:29:50.986Z,2.23
2022-10-10T08:32:17.434Z,2.63
2022-10-10T08:34:43.961Z,2.30
2022-10-10T08:37:10.407Z,2.90
2022-10-10T08:39:36.953Z,2.43
2022-10-10T08:42:03.612Z,3.27
2022-10-10T08:44:48.630Z,2.43
2022-10-10T08:47:15.058Z,2.70
2022-10-10T08:49:45.781Z,3.13
2022-10-10T08:52:15.270Z,2.97
2022-10-10T08:54:41.738Z,2.50
2022-10-10T08:57:12.786Z,2.07
2022-10-10T08:59:39.290Z,3.07
2022-10-10T09:02:26.343Z,2.10
2022-10-10T09:04:59.821Z,3.10
2022-10-10T09:07:35.409Z,2.97
2022-10-10T09:10:20.759Z,2.77
2022-10-10T09:12:56.594Z,2.53
2022-10-10T09:15:28.786Z,2.20
2022-10-10T09:18:01.267Z,2.50
2022-10-10T09:20:39.980Z,2.33
2022-10-10T09:23:25.293Z,2.30
2022-10-10T09:25:54.082Z,2.80
2022-10-10T09:28:39.429Z,2.60
2022-10-10T09:31:07.785Z,2.75
2022-10-10T09:33:36.404Z,2.20
2022-10-10T09:36:03.628Z,2.30
2022-10-10T09:38:33.019Z,2.33
2022-10-10T09:41:01.175Z,2.25
2022-10-10T09:43:29.838Z,2.80
2022-10-10T09:45:56.601Z,2.80
2022-10-10T09:48:28.161Z,2.95
2022-10-10T09:50:54.648Z,2.55
2022-10-10T09:53:21.172Z,2.10
2022-10-10T09:55:47.659Z,2.33
2022-10-10T09:58:14.091Z,2.35
2022-10-10T10:00:40.623Z,2.70
2022-10-10T10:03:17.545Z,2.22
2022-10-10T10:05:45.234Z,2.10
2022-10-10T10:08:18.485Z,2.05
2022-10-10T10:10:45.033Z,1.95
2022-10-10T10:13:14.767Z,1.95
2022-10-10T10:15:41.274Z,2.28
2022-10-10T10:18:21.845Z,2.53
2022-10-10T10:20:49.131Z,2.88
2022-10-10T10:23:26.055Z,2.25
2022-10-10T10:26:19.197Z,2.42
2022-10-10T10:28:45.873Z,2.20
2022-10-10T10:31:14.553Z,2.28
2022-10-10T10:33:41.033Z,2.38
2022-10-10T10:36:10.278Z,2.00
2022-10-10T10:38:43.833Z,2.28
2022-10-10T10:41:25.513Z,2.08
2022-10-10T10:44:12.145Z,2.25
2022-10-10T10:46:46.257Z,1.63
2022-10-10T10:49:25.508Z,1.95
2022-10-10T10:51:55.416Z,2.20
2022-10-10T10:54:21.870Z,2.20
2022-10-10T10:57:11.142Z,1.85
2022-10-10T11:00:17.014Z,2.60
2022-10-10T11:02:54.924Z,3.00
2022-10-10T11:05:43.810Z,2.50
2022-10-10T11:08:19.837Z,2.60
2022-10-10T11:14:17.720Z,1.98
2022-10-10T11:16:54.956Z,2.20
2022-10-10T11:19:26.553Z,2.50
2022-10-10T11:22:06.357Z,2.25
2022-10-10T11:24:41.357Z,2.83
2022-10-10T11:27:23.616Z,2.53
2022-10-10T11:30:13.966Z,2.47
2022-10-10T11:33:03.236Z,2.30
2022-10-10T11:35:48.602Z,2.20
2022-10-10T11:38:16.990Z,2.50
2022-10-10T11:40:52.727Z,2.40
2022-10-10T11:43:30.056Z,2.17
2022-10-10T11:46:03.251Z,2.60
2022-10-10T11:48:36.467Z,3.20
2022-10-10T11:51:17.115Z,2.72
2022-10-10T11:53:44.253Z,2.83
2022-10-10T11:56:15.877Z,2.13
2022-10-10T11:58:50.964Z,3.03
2022-10-10T12:01:17.383Z,2.00
2022-10-10T12:03:43.850Z,2.30
2022-10-10T12:06:16.349Z,2.70
2022-10-10T12:09:06.291Z,2.92
2022-10-10T12:11:35.305Z,2.28
2022-10-10T12:14:01.803Z,2.10
2022-10-10T12:16:30.653Z,2.83
2022-10-10T12:19:07.025Z,2.17
2022-10-10T12:21:49.752Z,2.72
2022-10-10T12:24:16.184Z,2.40
2022-10-10T12:26:54.873Z,2.60
2022-10-10T12:29:39.689Z,2.60
2022-10-10T12:32:15.237Z,3.00
2022-10-10T12:34:47.820Z,2.55
2022-10-10T12:37:27.235Z,2.05
2022-10-10T12:40:05.889Z,2.58
2022-10-10T12:42:32.398Z,3.35
2022-10-10T12:44:58.924Z,2.95
2022-10-10T12:47:46.214Z,2.17
2022-10-10T12:50:24.294Z,3.47
2022-10-10T12:52:52.615Z,2.90
2022-10-10T12:55:26.295Z,3.15
2022-10-10T12:57:53.858Z,2.67
2022-10-10T13:00:21.429Z,3.38
2022-10-10T13:02:48.548Z,3.50
2022-10-10T13:05:15.876Z,3.60
2022-10-10T13:07:42.601Z,2.97
2022-10-10T13:10:16.491Z,2.58
2022-10-10T13:12:42.925Z,3.20
2022-10-10T13:15:20.144Z,3.33
2022-10-10T13:17:46.696Z,3.03
2022-10-10T13:20:35.544Z,3.15
2022-10-10T13:23:06.142Z,3.53
2022-10-10T13:25:32.890Z,3.30
2022-10-10T13:27:59.350Z,2.92
2022-10-10T13:30:25.800Z,2.67
2022-10-10T13:32:52.773Z,3.35
2022-10-10T13:35:26.794Z,3.30
2022-10-10T13:37:57.301Z,2.97
2022-10-10T13:40:23.709Z,2.30
2022-10-10T13:42:50.127Z,2.70
2022-10-10T13:45:26.609Z,2.85
2022-10-10T13:47:56.242Z,3.00
2022-10-10T13:50:29.091Z,3.33
2022-10-10T13:53:17.158Z,3.20
2022-10-10T13:55:43.610Z,2.63
2022-10-10T13:58:10.077Z,3.00
2022-10-10T14:00:36.859Z,2.78
2022-10-10T14:03:12.474Z,2.33
2022-10-10T14:05:39.807Z,3.08
2022-10-10T14:08:06.220Z,2.17
2022-10-10T14:10:37.141Z,2.28
2022-10-10T14:13:03.622Z,2.95
2022-10-10T14:15:42.368Z,2.67
2022-10-10T14:18:16.835Z,2.67
2022-10-10T14:20:43.704Z,2.50
2022-10-10T14:23:10.205Z,2.28
2022-10-10T14:25:46.783Z,2.22
2022-10-10T14:28:17.166Z,3.22
2022-10-10T14:30:43.869Z,6.43
2022-10-10T14:33:14.397Z,3.72
2022-10-10T14:35:41.293Z,5.65
2022-10-10T14:38:07.818Z,2.20
2022-10-10T14:40:34.334Z,16.73
2022-10-10T14:43:00.831Z,6.82
2022-10-10T14:45:27.289Z,12.73
2022-10-10T14:47:53.875Z,6.97
2022-10-10T14:50:24.274Z,3.78
2022-10-10T14:52:50.734Z,2.83
2022-10-10T14:55:17.203Z,3.88
2022-10-10T14:57:43.652Z,2.40
2022-10-10T15:00:14.446Z,2.60
2022-10-10T15:02:45.271Z,2.35
2022-10-10T15:05:12.273Z,3.17
2022-10-10T15:07:38.712Z,2.45
2022-10-10T15:12:51.770Z,2.72
2022-10-10T15:15:18.205Z,2.38
2022-10-10T15:17:44.659Z,2.70
2022-10-10T15:20:11.824Z,2.67
2022-10-10T15:22:38.396Z,2.28
2022-10-10T15:25:05.351Z,2.15
2022-10-10T15:27:32.915Z,2.10
2022-10-10T15:29:59.380Z,2.00
2022-10-10T15:32:25.820Z,1.88
2022-10-10T15:34:52.233Z,1.75
2022-10-10T15:37:18.662Z,1.80
2022-10-10T15:39:45.811Z,2.13
2022-10-10T15:42:17.270Z,2.72
2022-10-10T15:44:48.047Z,2.28
2022-10-10T15:47:14.990Z,2.30
2022-10-10T15:49:41.594Z,2.60
2022-10-10T15:52:08.272Z,2.22
2022-10-10T15:54:34.685Z,2.22
2022-10-10T15:57:01.171Z,2.10
2022-10-10T15:59:27.627Z,2.08
2022-10-10T16:01:55.492Z,2.00
2022-10-10T16:04:22.643Z,2.30
2022-10-10T16:06:54.515Z,1.73
2022-10-10T16:09:35.270Z,2.30
2022-10-10T16:12:01.855Z,2.28
2022-10-10T16:14:28.525Z,2.50
2022-10-10T16:16:54.986Z,2.70
2022-10-10T16:19:21.502Z,2.40
2022-10-10T16:21:47.962Z,2.95
2022-10-10T16:24:14.524Z,4.80
2022-10-10T16:26:41.017Z,4.55
2022-10-10T16:29:07.770Z,4.28
2022-10-10T16:31:36.676Z,3.65
2022-10-10T16:34:03.167Z,3.75
2022-10-10T16:36:30.627Z,4.72
2022-10-10T16:38:57.951Z,5.28
2022-10-10T16:41:46.910Z,7.72
2022-10-10T16:44:14.284Z,7.32
2022-10-10T16:46:40.702Z,7.45
2022-10-10T16:49:07.225Z,8.02
2022-10-10T16:51:33.787Z,8.80
2022-10-10T16:54:00.869Z,8.48
2022-10-10T16:56:27.433Z,8.40
2022-10-10T16:58:53.890Z,8.20
2022-10-10T17:01:20.996Z,8.30
2022-10-10T17:03:50.251Z,8.55
2022-10-10T17:06:19.004Z,9.32
2022-10-10T17:08:46.021Z,8.68
2022-10-10T17:11:14.570Z,8.90
2022-10-10T17:13:41.455Z,9.63
2022-10-10T17:16:40.476Z,11.75
2022-10-10T17:18:54.969Z,12.25
2022-10-10T17:21:22.513Z,12.43
2022-10-10T17:23:49.059Z,13.95
2022-10-10T17:26:16.406Z,13.27
2022-10-10T17:28:43.179Z,14.32
2022-10-10T17:31:11.762Z,14.50
2022-10-10T17:33:38.349Z,17.10
2022-10-10T17:36:08.561Z,15.85
2022-10-10T17:38:39.925Z,16.38
2022-10-10T17:41:06.823Z,12.98
2022-10-10T17:43:33.324Z,10.25
2022-10-10T17:46:21.657Z,9.98
2022-10-10T17:48:47.180Z,13.60
2022-10-10T17:51:13.927Z,10.95
2022-10-10T17:53:40.443Z,10.43
2022-10-10T17:56:16.921Z,10.52
2022-10-10T17:58:43.797Z,10.15
2022-10-10T18:01:10.635Z,9.65
2022-10-10T18:03:37.182Z,10.05
2022-10-10T18:06:07.269Z,10.07
2022-10-10T18:08:33.717Z,11.80
2022-10-10T18:11:00.388Z,10.18
2022-10-10T18:13:27.175Z,12.15
2022-10-10T18:16:06.219Z,12.60
2022-10-10T18:18:34.960Z,11.43
2022-10-10T18:21:02.765Z,12.10
2022-10-10T18:23:29.617Z,10.68
2022-10-10T18:26:00.161Z,11.13
2022-10-10T18:28:27.022Z,10.70
2022-10-10T18:30:53.550Z,11.82
2022-10-10T18:33:20.055Z,11.55
2022-10-10T18:35:46.481Z,11.70
2022-10-10T18:38:12.887Z,12.32
2022-10-10T18:40:39.344Z,12.35
2022-10-10T18:43:05.826Z,12.30
2022-10-10T18:45:32.305Z,13.68
2022-10-10T18:47:58.781Z,14.32
2022-10-10T18:50:25.201Z,11.85
2022-10-10T18:52:53.566Z,12.57
2022-10-10T18:55:20.113Z,12.02
2022-10-10T18:57:46.526Z,12.00
2022-10-10T19:00:13.226Z,10.20
2022-10-10T19:02:39.663Z,12.25
2022-10-10T19:05:06.261Z,13.85
2022-10-10T19:07:32.680Z,16.88
2022-10-10T19:09:59.129Z,16.15
2022-10-10T19:12:26.026Z,13.90
2022-10-10T19:14:52.454Z,13.00
2022-10-10T19:17:18.956Z,12.65
2022-10-10T19:19:45.599Z,12.90
2022-10-10T19:22:12.153Z,13.80
2022-10-10T19:24:38.579Z,14.35
2022-10-10T19:27:05.224Z,14.00
2022-10-10T19:29:31.645Z,14.20
2022-10-10T19:31:58.147Z,14.77
2022-10-10T19:34:25.345Z,14.27
2022-10-10T19:36:51.920Z,14.57
2022-10-10T19:39:18.411Z,14.63
2022-10-10T19:41:44.924Z,14.25
2022-10-10T19:44:11.465Z,14.77
2022-10-10T19:46:37.996Z,14.85
2022-10-10T19:49:04.703Z,15.07
2022-10-10T19:51:31.390Z,16.48
2022-10-10T19:53:57.876Z,16.63
2022-10-10T19:56:24.752Z,18.10
2022-10-10T19:58:55.115Z,17.83
2022-10-10T20:01:25.614Z,18.50
2022-10-10T20:03:55.004Z,17.05
2022-10-10T20:06:21.983Z,18.27
2022-10-10T20:08:48.600Z,16.47
2022-10-10T20:11:15.362Z,16.00
2022-10-10T20:13:41.922Z,16.25
2022-10-10T20:16:11.394Z,16.38
2022-10-10T20:18:39.205Z,16.63
2022-10-10T20:26:29.152Z,20.08
2022-10-10T20:28:56.236Z,19.40
2022-10-10T20:31:26.834Z,19.02
2022-10-10T20:33:53.984Z,19.95
2022-10-10T20:36:20.578Z,31.13
2022-10-10T20:38:53.879Z,26.92
2022-10-10T20:41:20.551Z,25.08
2022-10-10T20:43:48.780Z,23.47
2022-10-10T20:46:15.468Z,23.17
2022-10-10T20:48:42.018Z,22.08
2022-10-10T20:51:09.598Z,23.20
2022-10-10T20:53:36.426Z,24.00
2022-10-10T20:56:07.062Z,22.33
2022-10-10T20:58:33.979Z,21.95
2022-10-10T21:01:10.765Z,22.42
2022-10-10T21:03:37.804Z,19.93
2022-10-10T21:06:05.575Z,20.25
2022-10-10T21:08:32.399Z,20.58
2022-10-10T21:10:59.537Z,21.63
2022-10-10T21:13:26.149Z,21.70
2022-10-10T21:15:52.680Z,21.50
2022-10-10T21:18:20.428Z,25.57
2022-10-10T21:20:46.984Z,25.65
2022-10-10T21:23:13.692Z,28.88
2022-10-10T21:25:42.511Z,38.97
2022-10-10T21:28:09.279Z,39.38
2022-10-10T21:30:35.893Z,31.02
2022-10-10T21:33:02.419Z,32.40
2022-10-10T21:35:28.930Z,31.65
2022-10-10T21:37:55.459Z,31.73
2022-10-10T21:40:21.961Z,40.97
2022-10-10T21:42:48.486Z,37.03
2022-10-10T21:45:15.070Z,36.23
2022-10-10T21:47:42.317Z,34.13
2022-10-10T21:50:09.723Z,32.55
2022-10-10T21:52:38.458Z,36.73
2022-10-10T21:55:05.219Z,37.13
2022-10-10T21:57:31.756Z,32.63
2022-10-10T21:59:58.350Z,36.10
2022-10-10T22:02:24.895Z,37.83
2022-10-10T22:07:38.655Z,38.93
2022-10-10T22:10:05.731Z,34.53
2022-10-10T22:12:32.221Z,33.13
2022-10-10T22:14:58.739Z,32.27
2022-10-10T22:17:25.317Z,33.45
2022-10-10T22:19:51.880Z,32.90
2022-10-10T22:22:18.829Z,31.27
2022-10-10T22:24:45.540Z,28.10
2022-10-10T22:27:12.072Z,26.80
2022-10-10T22:29:38.618Z,26.70
2022-10-10T22:32:05.154Z,25.53
2022-10-10T22:34:31.626Z,23.83
2022-10-10T22:36:58.096Z,22.47
2022-10-10T22:39:24.567Z,22.10
2022-10-10T22:41:51.165Z,22.23
2022-10-10T22:44:17.950Z,24.93
2022-10-10T22:46:44.707Z,25.23
2022-10-10T22:49:11.243Z,25.03
2022-10-10T22:51:37.751Z,21.63
2022-10-10T22:54:04.338Z,19.00
2022-10-10T22:56:31.456Z,19.00
2022-10-10T22:58:57.943Z,17.17
2022-10-10T23:01:24.871Z,16.13
2022-10-10T23:04:00.376Z,16.05
2022-10-10T23:06:27.289Z,15.37
2022-10-10T23:08:57.017Z,15.07
2022-10-10T23:11:23.618Z,17.23
2022-10-10T23:13:50.121Z,16.00
2022-10-10T23:16:16.842Z,15.40
2022-10-10T23:18:43.374Z,16.20
2022-10-10T23:21:09.836Z,14.73
2022-10-10T23:23:36.845Z,15.40
2022-10-10T23:26:07.044Z,14.37
2022-10-10T23:28:34.273Z,13.83
2022-10-10T23:31:01.257Z,14.47
2022-10-10T23:33:27.852Z,13.98
2022-10-10T23:35:58.283Z,12.80
2022-10-10T23:38:24.838Z,14.40
2022-10-10T23:40:51.511Z,13.10
2022-10-10T23:43:18.023Z,12.87
2022-10-10T23:45:44.521Z,12.57
2022-10-10T23:48:11.075Z,11.33
2022-10-10T23:50:37.519Z,11.93
2022-10-10T23:53:04.070Z,11.80
2022-10-10T23:55:30.525Z,11.77
2022-10-10T23:57:58.390Z,11.73
